Time;durP1;ratioP1;P1;durP2;ratioP2;P2;SDS_P1;SDS_P2;PMS_P1;PMS_P2;Temp;Humidity;BMP_temperature;BMP_pressure;BME280_temperature;BME280_humidity;BME280_pressure;Samples;Min_cycle;Max_cycle;Signal;HPM_P1;HPM_P2
2021/06/11 00:00:13;;;;;;;17.67;7.35;;;;;;;29.91;62.16;100554.50;4914303;28;65543;-35
2021/06/11 00:02:44;;;;;;;20.08;7.85;;;;;;;29.91;61.34;100551.78;4917215;28;69004;-34
2021/06/11 00:05:16;;;;;;;19.65;7.72;;;;;;;29.97;61.84;100562.53;4918495;28;65446;-38
2021/06/11 00:07:48;;;;;;;11.57;7.70;;;;;;;30.01;61.30;100562.94;4919204;28;68949;-35
2021/06/11 00:10:20;;;;;;;13.40;7.88;;;;;;;30.04;62.54;100565.19;4916435;28;66023;-34
2021/06/11 00:12:52;;;;;;;13.55;8.70;;;;;;;29.97;62.57;100557.13;4916743;28;70070;-35
2021/06/11 00:15:25;;;;;;;19.48;9.00;;;;;;;30.08;62.49;100571.81;4917843;28;64990;-34
2021/06/11 00:17:58;;;;;;;16.75;9.10;;;;;;;30.09;62.84;100581.59;4913490;28;69897;-35
2021/06/11 00:20:30;;;;;;;17.42;9.57;;;;;;;30.13;61.99;100571.97;4913804;28;66138;-35
2021/06/11 00:23:01;;;;;;;15.77;9.13;;;;;;;30.13;62.81;100577.38;4909097;28;69261;-35
2021/06/11 00:25:34;;;;;;;14.30;9.40;;;;;;;30.14;63.29;100576.31;4913859;28;66124;-35
2021/06/11 00:28:05;;;;;;;9.68;8.68;;;;;;;30.15;63.44;100579.88;4915646;28;68626;-34
2021/06/11 00:30:39;;;;;;;15.07;8.80;;;;;;;30.14;63.57;100567.38;4910577;28;65895;-34
2021/06/11 00:33:11;;;;;;;17.45;8.73;;;;;;;30.19;63.21;100576.47;4919962;28;69913;-34
2021/06/11 00:35:43;;;;;;;12.60;7.95;;;;;;;30.20;62.82;100575.44;4905829;28;66744;-35
2021/06/11 00:38:14;;;;;;;7.93;7.13;;;;;;;30.16;62.97;100560.69;4914987;28;68967;-34
2021/06/11 00:40:46;;;;;;;8.27;6.43;;;;;;;30.18;63.45;100569.44;4913653;28;66074;-35
2021/06/11 00:43:17;;;;;;;10.50;6.00;;;;;;;30.17;63.37;100570.50;4913002;28;70168;-34
2021/06/11 00:45:49;;;;;;;9.88;6.75;;;;;;;30.26;63.19;100571.88;4915447;28;65942;-35
2021/06/11 00:48:20;;;;;;;7.95;5.22;;;;;;;30.30;63.18;100571.44;4916194;28;69610;-35
2021/06/11 00:50:52;;;;;;;12.63;6.22;;;;;;;30.33;63.42;100565.56;4914601;28;65320;-35
2021/06/11 00:53:24;;;;;;;10.30;5.70;;;;;;;30.26;63.09;100571.88;4914556;28;69928;-35
2021/06/11 00:55:55;;;;;;;8.90;6.00;;;;;;;30.36;62.35;100573.22;4915468;28;66126;-36
2021/06/11 00:58:27;;;;;;;12.73;5.75;;;;;;;30.35;62.62;100577.00;4914836;28;70113;-35
2021/06/11 01:00:59;;;;;;;12.00;5.55;;;;;;;30.39;62.47;100580.91;4915614;28;66893;-34
2021/06/11 01:03:31;;;;;;;8.75;5.65;;;;;;;30.43;63.16;100582.13;4919860;28;69741;-37
2021/06/11 01:06:02;;;;;;;6.72;4.70;;;;;;;30.44;62.40;100586.47;4888005;28;67106;-35
2021/06/11 01:08:35;;;;;;;6.85;4.18;;;;;;;30.42;62.71;100583.16;4900907;28;70132;-35
2021/06/11 01:11:09;;;;;;;9.38;4.68;;;;;;;30.49;62.55;100589.34;4926845;28;63938;-35
2021/06/11 01:13:42;;;;;;;10.55;4.28;;;;;;;30.50;62.09;100601.81;4919048;28;70268;-35
2021/06/11 01:16:13;;;;;;;6.53;3.95;;;;;;;30.47;61.96;100594.97;4917007;28;65286;-34
2021/06/11 01:18:46;;;;;;;5.85;4.60;;;;;;;30.53;61.70;100601.34;4915029;28;70508;-36
2021/06/11 01:21:23;;;;;;;9.90;4.10;;;;;;;30.45;62.03;100582.69;4918681;28;66236;-34
2021/06/11 01:24:05;;;;;;;5.85;4.10;;;;;;;30.58;62.27;100603.41;4917708;28;68742;-35
2021/06/11 01:26:44;;;;;;;7.43;3.88;;;;;;;30.60;61.37;100604.00;4919129;28;65294;-34
2021/06/11 01:29:26;;;;;;;11.38;4.55;;;;;;;30.41;61.90;100573.41;4911405;28;70255;-34
2021/06/11 01:32:02;;;;;;;7.03;4.38;;;;;;;30.65;60.94;100606.88;4917811;28;65397;-36
2021/06/11 01:34:38;;;;;;;12.75;4.80;;;;;;;30.43;61.14;100560.47;4916167;28;70212;-36
2021/06/11 01:37:24;;;;;;;6.85;4.50;;;;;;;30.64;60.68;100595.19;4896212;28;66220;-36
2021/06/11 01:39:59;;;;;;;7.93;3.97;;;;;;;30.48;61.03;100571.44;4916378;28;70565;-35
2021/06/11 01:42:39;;;;;;;18.77;4.47;;;;;;;30.84;61.25;100599.59;4915985;28;65534;-34
2021/06/11 01:45:33;;;;;;;12.88;4.63;;;;;;;30.88;61.21;100590.78;4902417;28;70066;-33
2021/06/11 01:48:19;;;;;;;7.45;3.80;;;;;;;30.76;60.44;100570.06;4888134;28;67129;-34
2021/06/11 01:50:59;;;;;;;13.55;3.90;;;;;;;30.93;60.92;100598.25;4899107;28;69456;-32
2021/06/11 01:54:03;;;;;;;6.63;3.53;;;;;;;30.95;61.37;100601.53;4915964;28;65315;-36
2021/06/11 01:56:36;;;;;;;7.00;4.18;;;;;;;30.91;61.17;100592.22;4894636;28;69734;-33
2021/06/11 01:59:28;;;;;;;8.52;4.40;;;;;;;30.93;60.87;100598.25;4916685;28;65927;-32
2021/06/11 02:02:02;;;;;;;7.05;3.50;;;;;;;30.92;60.64;100577.59;4918488;28;69502;-33
2021/06/11 02:04:34;;;;;;;7.93;3.05;;;;;;;31.04;59.99;100594.75;4929488;28;65453;-33
2021/06/11 02:07:09;;;;;;;5.28;3.70;;;;;;;31.08;59.91;100589.72;4916397;28;70151;-32
2021/06/11 02:12:56;;;;;;;16.13;2.92;;;;;;;31.11;60.25;100595.47;4897663;28;69342;-35
2021/06/11 02:15:29;;;;;;;10.10;3.17;;;;;;;31.10;59.73;100599.25;4893362;28;66739;-36
2021/06/11 02:18:02;;;;;;;8.75;2.88;;;;;;;31.14;60.01;100599.63;4913749;28;69267;-38
2021/06/11 02:20:34;;;;;;;11.95;3.30;;;;;;;31.20;59.42;100601.41;4893894;28;66099;-34
2021/06/11 02:23:06;;;;;;;4.45;3.20;;;;;;;31.19;59.17;100590.81;4927950;28;69784;-36
2021/06/11 02:25:37;;;;;;;;;;;;;;;31.11;60.06;100597.38;4909907;28;66225;-34
2021/06/11 02:28:14;;;;;;;6.03;3.53;;;;;;;31.33;59.19;100608.53;4912821;28;71249;-38
2021/06/11 02:30:46;;;;;;;10.85;3.58;;;;;;;31.37;58.91;100607.91;4882429;28;64524;-39
2021/06/11 02:33:19;;;;;;;12.38;3.50;;;;;;;31.41;59.09;100589.28;4883640;29;69856;-40
2021/06/11 02:35:52;;;;;;;6.20;2.95;;;;;;;31.43;59.13;100592.59;4897744;28;66258;-36
2021/06/11 02:38:24;;;;;;;7.13;2.95;;;;;;;31.45;59.23;100590.44;4895156;28;69241;-38
2021/06/11 02:40:58;;;;;;;5.95;3.33;;;;;;;31.51;59.09;100594.97;4894376;28;65171;-34
2021/06/11 02:43:32;;;;;;;9.00;2.63;;;;;;;31.56;59.53;100592.38;4898019;29;70342;-40
2021/06/11 02:46:27;;;;;;;6.55;3.05;;;;;;;31.53;59.78;100586.59;4919154;28;65434;-36
2021/06/11 02:49:34;;;;;;;20.92;3.40;;;;;;;31.60;59.79;100581.91;4899765;28;70006;-36
2021/06/11 02:52:08;;;;;;;8.65;3.17;;;;;;;31.67;59.30;100581.78;4899738;28;66109;-38
2021/06/11 02:54:44;;;;;;;10.20;2.92;;;;;;;31.69;59.28;100579.69;4884842;28;69983;-37
2021/06/11 02:57:22;;;;;;;8.43;3.42;;;;;;;31.73;58.99;100586.28;4899148;28;65568;-37
2021/06/11 03:00:02;;;;;;;8.93;3.45;;;;;;;31.72;59.35;100590.88;4919071;28;70183;-37
2021/06/11 03:03:27;;;;;;;6.35;3.33;;;;;;;31.67;59.29;100582.63;4915319;28;66309;-37
2021/06/11 03:06:03;;;;;;;11.70;2.95;;;;;;;31.79;58.37;100563.66;4900656;28;69936;-37
2021/06/11 03:08:39;;;;;;;8.80;2.88;;;;;;;31.85;57.94;100573.56;4919824;28;66171;-37
2021/06/11 03:11:13;;;;;;;4.55;2.47;;;;;;;31.75;57.92;100551.63;4900139;28;69900;-38
2021/06/11 03:13:48;;;;;;;9.23;2.80;;;;;;;31.91;57.63;100577.25;4918959;28;65509;-38
2021/06/11 03:16:20;;;;;;;3.70;2.03;;;;;;;31.93;57.35;100570.56;4915878;28;69993;-35
2021/06/11 03:18:53;;;;;;;;;;;;;;;31.79;57.39;100574.53;4920338;28;66037;-43
2021/06/11 03:21:52;;;;;;;9.85;2.13;;;;;;;31.88;57.04;100569.56;4913910;28;69052;-39
2021/06/11 03:24:41;;;;;;;9.63;2.35;;;;;;;32.00;56.69;100563.09;4900045;28;65159;-38
2021/06/11 03:27:17;;;;;;;6.50;2.35;;;;;;;32.04;56.76;100558.88;4911979;28;70944;-38
2021/06/11 03:29:55;;;;;;;4.22;1.95;;;;;;;31.94;57.22;100539.63;4919394;28;65442;-37
2021/06/11 03:32:31;;;;;;;5.90;2.20;;;;;;;32.11;56.40;100566.06;4918359;28;70189;-36
2021/06/11 03:35:12;;;;;;;5.72;1.73;;;;;;;32.08;55.47;100556.50;4919332;28;66183;-37
2021/06/11 03:37:52;;;;;;;4.25;1.98;;;;;;;32.15;55.25;100556.38;4917361;28;69905;-37
2021/06/11 03:40:38;;;;;;;13.50;2.72;;;;;;;31.99;54.35;100520.78;4918205;28;65865;-36
2021/06/11 03:43:11;;;;;;;11.48;2.35;;;;;;;32.27;55.37;100549.06;4900886;28;70381;-36
2021/06/11 03:45:45;;;;;;;3.08;1.63;;;;;;;32.15;54.78;100519.25;4919972;28;65510;-36
2021/06/11 03:48:18;;;;;;;9.60;2.65;;;;;;;32.31;55.36;100541.25;4917850;28;70132;-36
2021/06/11 03:50:52;;;;;;;4.80;1.88;;;;;;;32.28;55.36;100539.84;4903219;28;66599;-34
2021/06/11 03:53:27;;;;;;;7.90;1.73;;;;;;;32.24;53.14;100541.41;4917493;28;68775;-35
2021/06/11 03:56:06;;;;;;;2.67;1.73;;;;;;;32.01;51.83;100529.50;4901095;28;66336;-36
2021/06/11 03:58:43;;;;;;;10.30;1.77;;;;;;;31.93;50.85;100535.28;4919277;28;68919;-39
2021/06/11 04:01:24;;;;;;;2.33;1.50;;;;;;;31.47;49.63;100479.91;4916012;28;66139;-38
2021/06/11 04:03:56;;;;;;;3.50;1.80;;;;;;;31.63;50.13;100520.97;4913385;28;69814;-37
2021/06/11 04:06:55;;;;;;;12.88;2.28;;;;;;;31.42;48.12;100525.88;4914235;28;66109;-37
2021/06/11 04:09:56;;;;;;;14.60;1.90;;;;;;;31.40;48.71;100528.00;4914741;28;70007;-37
2021/06/11 04:12:55;;;;;;;19.88;1.98;;;;;;;31.27;48.19;100528.16;4919640;28;66383;-36
2021/06/11 04:15:33;;;;;;;9.75;1.90;;;;;;;31.00;48.40;100501.44;4921299;28;69751;-36
2021/06/11 04:18:12;;;;;;;8.27;1.60;;;;;;;31.10;46.66;100517.97;4922520;28;66033;-36
2021/06/11 04:20:51;;;;;;;5.03;1.63;;;;;;;30.95;46.50;100509.44;4904889;28;69717;-35
2021/06/11 04:23:27;;;;;;;7.40;1.70;;;;;;;30.85;46.56;100493.75;4921740;28;65431;-40
2021/06/11 04:26:01;;;;;;;3.30;1.33;;;;;;;30.84;46.38;100496.66;4917560;28;69829;-35
2021/06/11 04:28:35;;;;;;;7.00;1.80;;;;;;;30.73;46.41;100496.38;4918363;28;65766;-36
2021/06/11 04:31:07;;;;;;;6.60;1.40;;;;;;;30.88;46.24;100519.56;4918207;28;69980;-36
2021/06/11 04:33:39;;;;;;;8.27;1.05;;;;;;;30.81;46.03;100514.19;4919559;28;66132;-35
2021/06/11 04:36:11;;;;;;;2.72;1.13;;;;;;;30.75;45.49;100503.44;4921165;28;70349;-37
2021/06/11 04:38:59;;;;;;;3.40;1.27;;;;;;;30.70;43.82;100496.84;4920569;28;65780;-39
2021/06/11 04:41:31;;;;;;;4.32;1.45;;;;;;;30.69;45.14;100478.94;4934293;28;70227;-36
2021/06/11 04:44:04;;;;;;;;;;;;;;;30.44;43.02;100478.22;4918428;28;66358;-38
2021/06/11 04:46:35;;;;;;;;;;;;;;;30.40;43.76;100479.75;4914783;28;69954;-36
2021/06/11 04:49:08;;;;;;;2.50;1.20;;;;;;;30.58;44.62;100471.56;4903896;28;66802;-37
2021/06/11 04:51:40;;;;;;;;;;;;;;;30.35;43.35;100466.06;4893966;28;68990;-34
2021/06/11 04:54:11;;;;;;;4.72;0.90;;;;;;;30.53;43.77;100462.50;4906732;28;65939;-38
2021/06/11 04:56:44;;;;;;;2.28;0.98;;;;;;;30.50;43.50;100466.47;4901876;28;70308;-37
2021/06/11 04:59:17;;;;;;;4.18;1.08;;;;;;;30.45;44.43;100458.22;4902898;28;65549;-37
2021/06/11 05:02:09;;;;;;;1.52;1.17;;;;;;;30.45;43.06;100463.63;4918669;28;69244;-36
2021/06/11 05:04:42;;;;;;;2.13;1.38;;;;;;;30.46;43.75;100462.59;4916299;28;66175;-36
2021/06/11 05:07:15;;;;;;;2.80;1.42;;;;;;;30.47;46.22;100461.53;4903176;28;70403;-36
2021/06/11 05:10:06;;;;;;;;;;;;;;;30.29;45.12;100456.97;4900726;28;66789;-36
2021/06/11 05:12:43;;;;;;;3.13;1.42;;;;;;;30.46;45.49;100452.59;4917187;28;70592;-34
2021/06/11 05:15:16;;;;;;;4.25;1.27;;;;;;;30.49;45.41;100464.84;4920459;28;65893;-33
2021/06/11 05:17:49;;;;;;;1.75;1.15;;;;;;;30.48;45.08;100460.50;4918526;28;70144;-33
2021/06/11 05:20:48;;;;;;;2.05;1.13;;;;;;;30.50;44.56;100458.34;4917672;28;65522;-35
2021/06/11 05:23:39;;;;;;;5.95;1.33;;;;;;;30.52;46.63;100466.25;4898806;28;69779;-35
2021/06/11 05:26:15;;;;;;;1.45;0.85;;;;;;;30.48;45.59;100447.78;4918709;28;65300;-34
2021/06/11 05:28:48;;;;;;;3.17;1.20;;;;;;;30.50;45.30;100442.13;4918463;28;70107;-35
2021/06/11 05:31:24;;;;;;;1.60;1.15;;;;;;;30.56;44.58;100445.78;4902085;28;66252;-34
2021/06/11 05:34:05;;;;;;;1.13;0.90;;;;;;;30.55;44.66;100444.97;4917656;28;69039;-34
2021/06/11 05:36:40;;;;;;;1.17;1.02;;;;;;;30.55;43.62;100442.25;4919192;28;66065;-34
2021/06/11 05:39:15;;;;;;;1.35;1.10;;;;;;;30.57;43.39;100448.28;4915167;28;69216;-35
2021/06/11 05:41:47;;;;;;;1.23;0.95;;;;;;;30.55;43.46;100450.38;4901739;28;66220;-34
2021/06/11 05:44:37;;;;;;;4.55;1.10;;;;;;;30.58;43.01;100449.94;4919782;28;69799;-36
2021/06/11 05:47:29;;;;;;;1.05;0.95;;;;;;;30.55;42.21;100441.44;4919258;28;65378;-35
2021/06/11 05:50:12;;;;;;;6.05;0.93;;;;;;;30.34;41.03;100404.84;4908529;28;70125;-34
2021/06/11 05:52:57;;;;;;;1.42;1.10;;;;;;;30.55;42.16;100428.72;4919632;28;66057;-34
2021/06/11 05:55:43;;;;;;;2.00;0.98;;;;;;;30.55;42.49;100426.03;4920721;28;70027;-34
2021/06/11 05:59:04;;;;;;;1.33;1.02;;;;;;;30.58;41.84;100428.25;5101772;27;44498;-37
2021/06/11 06:01:36;;;;;;;1.30;1.00;;;;;;;30.56;41.55;100419.53;5092973;27;69582;-36
2021/06/11 06:04:08;;;;;;;1.10;0.82;;;;;;;30.56;41.91;100414.13;5103709;27;65953;-35
2021/06/11 06:06:41;;;;;;;1.38;0.90;;;;;;;30.55;41.44;100415.19;5100659;27;69887;-34
2021/06/11 06:09:14;;;;;;;1.67;1.00;;;;;;;30.60;41.25;100422.63;5105361;27;66064;-34
2021/06/11 06:11:46;;;;;;;3.45;0.90;;;;;;;30.57;41.27;100407.69;5110292;27;70309;-34
2021/06/11 06:14:20;;;;;;;1.38;0.95;;;;;;;30.59;41.38;100413.69;5102682;27;66569;-34
2021/06/11 06:17:23;;;;;;;1.20;0.80;;;;;;;30.62;40.79;100413.25;5098292;27;69873;-35
2021/06/11 06:20:16;;;;;;;1.98;0.95;;;;;;;30.38;40.30;100379.00;5106940;27;66270;-37
2021/06/11 06:22:49;;;;;;;1.70;1.10;;;;;;;30.61;40.67;100399.91;5097551;27;70184;-34
2021/06/11 06:25:23;;;;;;;1.20;0.90;;;;;;;30.63;40.96;100401.34;5101706;27;66831;-35
2021/06/11 06:27:56;;;;;;;1.80;1.00;;;;;;;30.63;40.70;100387.81;5103319;27;70620;-34
2021/06/11 06:30:28;;;;;;;2.28;1.05;;;;;;;30.67;40.81;100382.75;5094364;27;66216;-35
2021/06/11 06:33:01;;;;;;;1.00;0.70;;;;;;;30.69;40.85;100381.47;5105151;27;69250;-34
2021/06/11 06:35:33;;;;;;;4.63;1.00;;;;;;;30.69;40.31;100381.47;5104280;27;66452;-35
2021/06/11 06:38:10;;;;;;;0.82;0.70;;;;;;;30.71;40.37;100389.38;5099967;27;69853;-34
2021/06/11 06:40:48;;;;;;;0.70;0.65;;;;;;;30.71;40.58;100390.19;5105021;27;66165;-35
2021/06/11 06:43:21;;;;;;;6.05;1.02;;;;;;;30.73;39.54;100371.84;5098041;27;70264;-34
2021/06/11 06:45:58;;;;;;;3.70;1.17;;;;;;;30.75;40.23;100395.13;5099263;27;65515;-36
2021/06/11 06:48:31;;;;;;;1.08;0.63;;;;;;;30.76;40.48;100385.94;5103311;27;70273;-35
2021/06/11 06:51:05;;;;;;;8.68;1.15;;;;;;;30.79;40.12;100385.50;5098736;27;66669;-36
2021/06/11 06:53:43;;;;;;;7.13;0.88;;;;;;;30.82;39.88;100385.06;5091692;27;70513;-33
2021/06/11 06:56:16;;;;;;;2.70;0.77;;;;;;;30.82;39.48;100385.06;5095091;27;66726;-34
2021/06/11 06:58:48;;;;;;;1.58;0.90;;;;;;;30.86;39.59;100386.25;5094736;27;70353;-38
2021/06/11 07:01:24;;;;;;;3.47;1.00;;;;;;;30.85;38.63;100374.59;5103855;27;65766;-35
2021/06/11 07:03:59;;;;;;;4.00;0.70;;;;;;;30.87;39.05;100372.50;5101708;27;69245;-34
2021/06/11 07:06:32;;;;;;;2.58;0.90;;;;;;;30.87;38.95;100385.19;5098505;27;65793;-35
2021/06/11 07:09:07;;;;;;;1.42;0.90;;;;;;;30.87;39.08;100374.34;5092692;27;70187;-37
2021/06/11 07:11:39;;;;;;;4.60;1.00;;;;;;;30.90;39.41;100376.63;5091517;27;66272;-35
2021/06/11 07:14:12;;;;;;;1.45;0.98;;;;;;;30.88;39.05;100362.47;5091338;27;69244;-35
2021/06/11 07:16:45;;;;;;;4.30;1.13;;;;;;;30.91;38.89;100346.56;5085302;27;66775;-35
2021/06/11 07:19:17;;;;;;;1.48;0.90;;;;;;;30.89;39.64;100354.09;5087067;27;70477;-35
2021/06/11 07:21:50;;;;;;;1.70;1.02;;;;;;;30.90;41.16;100342.22;5088367;27;66157;-34
2021/06/11 07:24:25;;;;;;;19.40;1.40;;;;;;;30.95;41.17;100336.09;5085001;27;69948;-37
2021/06/11 07:26:57;;;;;;;8.95;1.40;;;;;;;30.93;40.48;100325.50;5084681;27;65401;-35
2021/06/11 07:29:32;;;;;;;17.13;1.17;;;;;;;30.92;40.65;100321.16;5078024;28;70752;-36
2021/06/11 07:32:07;;;;;;;4.30;0.98;;;;;;;30.92;40.30;100313.03;5086986;27;66423;-35
2021/06/11 07:34:41;;;;;;;19.40;1.55;;;;;;;30.85;40.28;100303.38;5083798;27;69957;-36
2021/06/11 07:37:15;;;;;;;7.53;1.38;;;;;;;30.90;40.04;100300.78;5087681;27;66411;-36
2021/06/11 07:39:47;;;;;;;4.30;0.90;;;;;;;30.90;39.94;100296.19;5088004;27;70068;-35
2021/06/11 07:42:20;;;;;;;4.28;1.27;;;;;;;30.92;40.09;100287.81;5088381;27;66828;-34
2021/06/11 07:44:52;;;;;;;10.70;1.48;;;;;;;30.88;39.47;100270.41;5088164;27;70439;-34
2021/06/11 07:47:24;;;;;;;6.38;1.00;;;;;;;30.90;40.41;100274.53;5087145;27;65432;-33
2021/06/11 07:49:56;;;;;;;16.65;1.33;;;;;;;30.90;39.51;100276.41;5094180;27;70059;-34
2021/06/11 07:52:31;;;;;;;6.03;1.00;;;;;;;30.90;39.22;100268.28;5088564;27;66478;-35
2021/06/11 07:55:05;;;;;;;11.48;1.27;;;;;;;30.95;41.03;100265.69;5086193;27;70081;-34
2021/06/11 07:57:38;;;;;;;11.25;2.05;;;;;;;31.08;47.00;100254.59;5076414;27;66292;-37
2021/06/11 08:00:11;;;;;;;6.28;0.88;;;;;;;31.25;49.13;100237.63;5089041;27;69954;-34
2021/06/11 08:02:58;;;;;;;4.68;1.60;;;;;;;31.47;49.74;100233.25;5084414;27;66122;-32
2021/06/11 08:05:34;;;;;;;5.22;1.38;;;;;;;31.63;50.08;100228.16;5083664;27;69853;-34
2021/06/11 08:09:01;;;;;;;2.38;1.42;;;;;;;31.70;51.48;100210.66;5086779;27;66242;-35
2021/06/11 08:11:29;;;;;;;3.80;1.30;;;;;;;31.97;50.90;100229.09;5080233;27;70282;-34
2021/06/11 08:14:18;;;;;;;3.85;1.73;;;;;;;32.08;52.26;100224.69;5081109;27;66790;-35
2021/06/11 08:17:20;;;;;;;9.82;1.38;;;;;;;32.26;51.22;100227.16;5081768;27;68281;-35
2021/06/11 08:20:38;;;;;;;3.67;1.42;;;;;;;32.28;53.92;100225.03;5084881;27;65932;-33
2021/06/11 08:23:10;;;;;;;2.58;1.30;;;;;;;32.41;51.85;100207.59;5074916;27;69803;-33
2021/06/11 08:25:46;;;;;;;3.80;1.20;;;;;;;32.52;53.45;100225.72;5072077;27;66458;-33
2021/06/11 08:28:19;;;;;;;2.10;1.27;;;;;;;32.58;52.63;100224.75;5086973;27;69951;-35
2021/06/11 08:30:52;;;;;;;2.40;1.27;;;;;;;32.65;51.96;100230.00;5066915;27;65410;-36
2021/06/11 08:34:17;;;;;;;5.15;1.25;;;;;;;32.74;53.42;100223.09;5065210;27;67742;-38
2021/06/11 08:36:33;;;;;;;2.97;1.63;;;;;;;32.77;52.87;100222.59;5078779;27;65891;-38
2021/06/11 08:39:10;;;;;;;7.45;1.77;;;;;;;32.79;52.88;100215.03;5083154;27;69574;-36
2021/06/11 08:41:42;;;;;;;4.68;1.80;;;;;;;32.87;52.65;100206.41;5081489;27;65202;-36
2021/06/11 08:44:20;;;;;;;2.10;1.27;;;;;;;32.82;54.13;100192.78;5091195;27;69722;-38
2021/06/11 08:46:53;;;;;;;2.08;1.30;;;;;;;32.92;52.82;100202.97;5087361;27;66231;-35
2021/06/11 08:49:25;;;;;;;2.72;1.45;;;;;;;33.01;52.93;100217.78;5087925;27;69954;-37
2021/06/11 08:51:59;;;;;;;4.78;1.45;;;;;;;33.04;53.97;100217.31;5083639;27;66250;-36
2021/06/11 08:54:31;;;;;;;7.43;1.98;;;;;;;33.03;53.09;100214.81;5079067;27;70242;-37
2021/06/11 08:57:04;;;;;;;2.15;1.60;;;;;;;33.05;53.36;100224.38;5083658;27;65449;-36
2021/06/11 08:59:38;;;;;;;2.55;1.13;;;;;;;32.92;53.70;100209.22;5079357;27;69134;-36
2021/06/11 09:02:09;;;;;;;7.65;1.50;;;;;;;33.11;54.04;100249.72;5090369;27;65932;-34
2021/06/11 09:04:42;;;;;;;4.70;1.40;;;;;;;33.15;54.03;100261.72;5085952;27;70030;-33
2021/06/11 09:07:35;;;;;;;7.47;1.67;;;;;;;33.10;55.04;100265.22;5086872;27;67048;-34
2021/06/11 09:10:10;;;;;;;10.95;1.67;;;;;;;33.03;54.68;100239.28;5086602;27;70073;-33
2021/06/11 09:12:43;;;;;;;2.10;1.55;;;;;;;33.01;54.15;100235.97;5085463;27;65285;-33
2021/06/11 09:15:19;;;;;;;3.42;1.45;;;;;;;33.19;54.98;100265.59;5078490;27;69510;-34
2021/06/11 09:17:53;;;;;;;3.97;1.50;;;;;;;33.21;54.48;100257.19;5077634;27;66174;-34
2021/06/11 09:20:40;;;;;;;8.75;1.80;;;;;;;33.11;55.59;100249.72;5082803;27;70106;-34
2021/06/11 09:23:12;;;;;;;5.22;1.88;;;;;;;33.26;54.75;100257.25;5084206;27;64444;-35
2021/06/11 09:25:52;;;;;;;4.13;1.70;;;;;;;33.25;55.48;100256.44;5087456;27;69789;-35
2021/06/11 09:28:37;;;;;;;2.85;1.90;;;;;;;33.25;55.52;100251.00;5090647;27;65447;-35
2021/06/11 09:32:15;;;;;;;8.32;1.95;;;;;;;33.21;56.27;100244.44;5073318;27;69159;-36
2021/06/11 09:34:55;;;;;;;4.43;2.20;;;;;;;33.07;56.00;100216.81;5083187;27;66207;-34
2021/06/11 09:37:34;;;;;;;2.72;2.20;;;;;;;33.27;56.00;100248.84;5080331;27;69907;-35
2021/06/11 09:40:12;;;;;;;2.63;2.38;;;;;;;33.27;55.47;100254.28;5099587;27;66381;-35
2021/06/11 09:42:47;;;;;;;6.95;2.30;;;;;;;33.24;55.92;100254.81;5084374;27;70011;-35
2021/06/11 09:49:18;;;;;;;4.70;2.42;;;;;;;33.32;54.97;100310.59;5016686;28;68938;-34
2021/06/11 09:52:09;;;;;;;6.43;3.38;;;;;;;33.36;56.88;100334.31;5029420;28;65255;-35
2021/06/11 09:54:44;;;;;;;18.70;3.15;;;;;;;33.42;56.18;100356.16;5066652;27;69274;-35
2021/06/11 09:57:33;;;;;;;3.97;3.60;;;;;;;33.25;56.73;100399.69;5080428;27;66435;-35
2021/06/11 10:00:08;;;;;;;4.45;3.40;;;;;;;33.43;56.68;100463.81;5086158;27;70651;-35
2021/06/11 10:03:22;;;;;;;10.82;4.15;;;;;;;33.16;57.48;100434.59;5094440;27;65165;-35
2021/06/11 10:05:59;;;;;;;5.30;3.25;;;;;;;33.31;56.50;100455.75;5068342;27;70164;-35
2021/06/11 10:08:36;;;;;;;4.72;3.95;;;;;;;33.32;57.07;100458.25;5088119;27;66152;-35
2021/06/11 10:11:11;;;;;;;10.45;3.85;;;;;;;33.19;57.11;100469.44;5080488;27;69292;-36
2021/06/11 10:13:44;;;;;;;9.70;3.65;;;;;;;33.04;57.81;100455.56;5092874;27;65987;-36
2021/06/11 10:16:20;;;;;;;5.22;3.58;;;;;;;33.17;57.64;100476.19;5087121;27;69086;-35
2021/06/11 10:18:51;;;;;;;11.02;3.88;;;;;;;33.11;58.07;100437.22;5083987;27;64887;-35
2021/06/11 10:21:28;;;;;;;11.90;3.50;;;;;;;33.07;58.37;100436.06;5087384;27;69908;-37
2021/06/11 10:24:07;;;;;;;9.18;3.67;;;;;;;33.06;58.56;100426.25;5087139;27;66248;-35
2021/06/11 10:26:55;;;;;;;4.38;3.30;;;;;;;32.99;58.60;100414.69;5073215;27;69564;-35
2021/06/11 10:29:39;;;;;;;4.63;3.50;;;;;;;32.99;59.59;100436.44;5068373;27;66816;-34
2021/06/11 10:32:11;;;;;;;8.30;3.83;;;;;;;32.99;59.39;100441.84;5094474;27;69802;-36
2021/06/11 10:35:01;;;;;;;7.57;3.80;;;;;;;32.93;60.41;100449.94;5082541;27;65989;-36
2021/06/11 10:37:56;;;;;;;5.40;3.83;;;;;;;32.92;60.67;100450.19;5074201;27;69689;-36
2021/06/11 10:40:38;;;;;;;;;;;;;;;32.67;61.66;100434.25;5086033;27;66740;-35
2021/06/11 10:43:33;;;;;;;4.22;3.80;;;;;;;32.78;61.41;100436.06;5085538;27;69043;-36
2021/06/11 10:46:26;;;;;;;12.70;4.75;;;;;;;32.80;61.46;100442.09;5086287;27;65309;-36
2021/06/11 10:49:30;;;;;;;10.38;5.70;;;;;;;32.71;62.15;100443.56;5085659;27;70903;-35
2021/06/11 10:52:31;;;;;;;10.23;4.63;;;;;;;32.68;61.58;100449.47;5086138;27;67021;-36
2021/06/11 10:55:50;;;;;;;10.23;4.72;;;;;;;32.56;61.99;100440.56;5088005;27;69376;-37
2021/06/11 10:58:52;;;;;;;8.55;4.60;;;;;;;32.62;62.17;100447.72;5103869;27;65535;-37
2021/06/11 11:02:41;;;;;;;4.72;4.15;;;;;;;32.55;62.55;100438.91;5065366;27;70320;-36
2021/06/11 11:06:48;;;;;;;5.00;4.53;;;;;;;32.47;63.28;100434.69;5076048;27;64451;-36
2021/06/11 11:13:28;;;;;;;4.68;4.20;;;;;;;32.51;62.69;100424.97;5049835;28;64037;-36
2021/06/11 11:16:00;;;;;;;4.75;4.20;;;;;;;32.49;62.82;100435.28;5054695;28;70234;-35
2021/06/11 11:18:35;;;;;;;6.97;4.75;;;;;;;32.47;62.57;100435.50;5087836;27;65712;-36
2021/06/11 11:21:29;;;;;;;5.00;4.50;;;;;;;32.38;62.89;100430.69;5079912;27;69166;-38
2021/06/11 11:24:08;;;;;;;4.90;4.40;;;;;;;32.25;62.56;100412.78;5085563;27;66152;-35
2021/06/11 11:27:09;;;;;;;5.10;4.70;;;;;;;32.36;62.53;100449.09;5082401;27;69844;-35
2021/06/11 11:29:42;;;;;;;10.80;5.20;;;;;;;32.29;62.77;100454.66;5076570;27;65683;-35
2021/06/11 11:32:14;;;;;;;5.43;5.03;;;;;;;32.32;63.42;100461.47;5086797;27;69925;-35
2021/06/11 11:34:46;;;;;;;9.15;6.65;;;;;;;32.27;63.15;100463.03;5081985;27;65319;-35
2021/06/11 11:37:18;;;;;;;;;;;;;;;32.11;64.37;100473.81;5087964;27;70431;-35
2021/06/11 11:40:46;;;;;;;12.23;6.32;;;;;;;32.25;63.24;100469.75;5090214;27;65897;-35
2021/06/11 11:44:53;;;;;;;10.77;7.90;;;;;;;32.26;64.31;100476.84;5079597;27;69374;-36
2021/06/11 11:48:00;;;;;;;9.68;8.13;;;;;;;32.27;63.77;100478.50;5086532;27;66506;-36
2021/06/11 11:51:32;;;;;;;9.00;8.40;;;;;;;32.26;64.04;100480.41;5085386;27;69890;-34
2021/06/11 11:54:32;;;;;;;10.05;8.65;;;;;;;32.21;64.11;100480.28;5074273;27;66419;-34
2021/06/11 11:57:04;;;;;;;10.40;9.38;;;;;;;32.29;63.74;100498.09;5080273;27;70109;-35
2021/06/11 11:59:36;;;;;;;12.93;10.88;;;;;;;32.31;64.08;100498.66;5080172;27;66405;-35
2021/06/11 12:02:14;;;;;;;;;;;;;;;32.08;65.25;100507.66;5090588;27;70261;-35
2021/06/11 12:04:48;;;;;;;11.57;10.23;;;;;;;32.23;64.61;100510.72;5090382;27;67223;-35
2021/06/11 12:07:31;;;;;;;;;;;;;;;;;;;;;
2021/06/11 12:10:25;;;;;;;11.70;10.57;;;;;;;32.13;63.42;100515.09;5085099;27;65428;-36
2021/06/11 12:12:57;;;;;;;12.23;11.02;;;;;;;32.08;63.77;100517.69;5078583;27;69377;-35
2021/06/11 12:15:33;;;;;;;16.88;11.00;;;;;;;32.07;63.85;100526.88;5086583;27;65524;-36
2021/06/11 12:22:30;;;;;;;15.27;10.82;;;;;;;31.90;64.28;100534.88;5072570;27;66260;-36
2021/06/11 12:29:35;;;;;;;12.98;11.68;;;;;;;31.91;62.93;100542.81;5042230;28;66304;-35
2021/06/11 12:32:46;;;;;;;12.18;10.65;;;;;;;31.88;62.83;100548.69;4998040;28;72008;-36
2021/06/11 12:35:43;;;;;;;12.48;11.00;;;;;;;31.85;62.85;100546.47;5040435;28;66046;-36
2021/06/11 12:43:03;;;;;;;14.02;11.57;;;;;;;31.65;63.42;100573.91;5047226;28;65494;-36
2021/06/11 12:46:24;;;;;;;13.40;12.05;;;;;;;31.79;63.24;100590.78;4992236;28;70031;-36
2021/06/11 12:49:43;;;;;;;20.13;13.80;;;;;;;31.76;63.14;100591.22;5049636;28;65457;-37
2021/06/11 12:53:24;;;;;;;16.77;13.60;;;;;;;31.68;62.68;100594.28;5031083;28;68845;-36